This is the latest recevied weather packets stored in our database for station/object G1SCQ. If no packets are shown the sender has not sent any weather packets the latest 10 day(s).
| Time | Temp. | Humidity | Pressure | Rain* | Wind** | Luminosity | Snow |
|---|---|---|---|---|---|---|---|
| 1778245205 | 17.78° C | 59% | 1017.6 hPa | 0 mm | - | 579 W/m² | - |
| 1778244845 | 18.33° C | 58% | 1017.2 hPa | 0 mm | - | 607 W/m² | - |
| 1778244305 | 17.78° C | 59% | 1017.6 hPa | 0 mm | - | 649 W/m² | - |
| 1778243765 | 17.78° C | 61% | 1017.6 hPa | 0 mm | - | 632 W/m² | - |
| 1778243225 | 18.33° C | 61% | 1017.3 hPa | 0 mm | - | 615 W/m² | - |
| 1778242685 | 17.78° C | 63% | 1017.7 hPa | 0 mm | - | 640 W/m² | - |
| 1778242145 | 17.78° C | 64% | 1017.3 hPa | 0 mm | - | 640 W/m² | - |
| 1778241605 | 17.78° C | 63% | 1017.3 hPa | 0 mm | - | 633 W/m² | - |
| 1778241245 | 17.78° C | 63% | 1017.2 hPa | 0 mm | - | 617 W/m² | - |
| 1778240705 | 17.22° C | 64% | 1017.4 hPa | 0 mm | - | 597 W/m² | - |
| 1778240165 | 16.67° C | 66% | 1017.2 hPa | 0 mm | - | 631 W/m² | - |
| 1778239625 | 16.67° C | 66% | 1017.4 hPa | 0 mm | - | 624 W/m² | - |
| 1778239085 | 17.22° C | 67% | 1017.4 hPa | 0 mm | - | 624 W/m² | - |
| 1778238545 | 15.56° C | 75% | 1017.6 hPa | 0 mm | - | 604 W/m² | - |
| 1778238005 | 15° C | 73% | 1017.4 hPa | 0 mm | - | 605 W/m² | - |
| 1778237645 | 14.44° C | 77% | 1017.4 hPa | 0 mm | - | 592 W/m² | - |
| 1778237105 | 14.44° C | 73% | 1017.6 hPa | 0 mm | - | 604 W/m² | - |
| 1778236565 | 15° C | 73% | 1017.7 hPa | 0 mm | - | 580 W/m² | - |
| 1778236025 | 15.56° C | 72% | 1017.7 hPa | 0 mm | - | 556 W/m² | - |
| 1778235485 | 15° C | 73% | 1017.8 hPa | 0 mm | - | 540 W/m² | - |
| 1778234945 | 14.44° C | 74% | 1017.9 hPa | 0 mm | - | 533 W/m² | - |
| 1778234405 | 13.89° C | 73% | 1017.8 hPa | 0 mm | - | 519 W/m² | - |
| 1778234044 | 14.44° C | 73% | 1017.8 hPa | 0 mm | - | 509 W/m² | - |
| 1778233505 | 13.89° C | 73% | 1017.7 hPa | 0 mm | - | 488 W/m² | - |
| 1778232964 | 14.44° C | 74% | 1017.8 hPa | 0 mm | - | 475 W/m² | - |
* Rain latest hour (hover to see other rain measurements)
** Current wind speed in m/s (hover to see current wind gust speed)